Time;durP1;ratioP1;P1;durP2;ratioP2;P2;SDS_P1;SDS_P2;PMS_P1;PMS_P2;Temp;Humidity;BMP_temperature;BMP_pressure;BME280_temperature;BME280_humidity;BME280_pressure;Samples;Min_cycle;Max_cycle;Signal;HPM_P1;HPM_P2
2023/02/27 00:00:48;;;;;;;6.50;1.90;;;;;;;;;;5079655;28;20820;-53
2023/02/27 00:03:15;;;;;;;3.07;1.83;;;;;;;;;;5077116;28;20989;-53
2023/02/27 00:05:41;;;;;;;2.53;2.03;;;;;;;;;;5086460;28;20505;-53
2023/02/27 00:08:07;;;;;;;2.03;1.80;;;;;;;;;;5084925;28;20511;-53
2023/02/27 00:10:33;;;;;;;2.10;1.93;;;;;;;;;;5084165;28;20925;-53
2023/02/27 00:12:59;;;;;;;3.70;1.90;;;;;;;;;;5074396;28;20472;-53
2023/02/27 00:15:25;;;;;;;3.13;2.00;;;;;;;;;;5083094;28;20422;-53
2023/02/27 00:17:51;;;;;;;3.33;2.03;;;;;;;;;;5079763;28;20434;-53
2023/02/27 00:20:18;;;;;;;2.47;2.13;;;;;;;;;;5084034;28;20461;-53
2023/02/27 00:22:45;;;;;;;1.60;1.50;;;;;;;;;;5085053;28;20421;-53
2023/02/27 00:25:11;;;;;;;2.57;1.63;;;;;;;;;;5080247;28;20492;-53
2023/02/27 00:27:38;;;;;;;2.57;1.60;;;;;;;;;;5084774;28;20947;-53
2023/02/27 00:30:05;;;;;;;3.83;1.50;;;;;;;;;;5081009;28;20967;-53
2023/02/27 00:32:31;;;;;;;3.67;1.93;;;;;;;;;;5091438;28;20428;-53
2023/02/27 00:34:57;;;;;;;1.63;1.50;;;;;;;;;;5087288;28;20475;-52
2023/02/27 00:37:23;;;;;;;3.63;2.10;;;;;;;;;;5095456;28;20936;-53
2023/02/27 00:39:49;;;;;;;2.27;1.57;;;;;;;;;;5091540;28;20971;-53
2023/02/27 00:42:16;;;;;;;2.33;1.70;;;;;;;;;;5094383;28;20421;-52
2023/02/27 00:44:42;;;;;;;3.77;1.70;;;;;;;;;;5092522;28;20426;-53
2023/02/27 00:47:08;;;;;;;3.07;1.77;;;;;;;;;;5096767;28;20421;-52
2023/02/27 00:49:34;;;;;;;1.77;1.43;;;;;;;;;;5093840;28;20508;-53
2023/02/27 00:52:00;;;;;;;2.47;1.60;;;;;;;;;;5093915;28;20426;-53
2023/02/27 00:54:26;;;;;;;7.13;2.27;;;;;;;;;;5090578;28;20420;-53
2023/02/27 00:56:52;;;;;;;2.93;1.90;;;;;;;;;;5094047;28;20429;-53
2023/02/27 00:59:18;;;;;;;2.13;1.93;;;;;;;;;;5088460;28;20474;-53
2023/02/27 01:01:44;;;;;;;4.07;1.73;;;;;;;;;;5087325;28;20461;-53
2023/02/27 01:04:10;;;;;;;3.50;2.07;;;;;;;;;;5091625;28;20914;-53
2023/02/27 01:06:36;;;;;;;2.93;1.70;;;;;;;;;;5093467;28;20779;-52
2023/02/27 01:09:03;;;;;;;1.63;1.50;;;;;;;;;;5087224;28;20931;-53
2023/02/27 01:11:29;;;;;;;2.87;2.07;;;;;;;;;;5084467;28;20458;-53
2023/02/27 01:13:56;;;;;;;2.30;1.70;;;;;;;;;;5081840;28;20532;-53
2023/02/27 01:16:22;;;;;;;2.40;1.70;;;;;;;;;;5093986;28;20441;-52
2023/02/27 01:18:48;;;;;;;2.47;1.80;;;;;;;;;;5092895;28;20429;-53
2023/02/27 01:21:14;;;;;;;5.07;2.10;;;;;;;;;;5085568;28;20462;-53
2023/02/27 01:23:40;;;;;;;4.30;1.70;;;;;;;;;;5094542;28;20475;-53
2023/02/27 01:26:06;;;;;;;4.33;1.80;;;;;;;;;;5094310;28;20501;-53
2023/02/27 01:28:33;;;;;;;2.63;1.70;;;;;;;;;;5084062;28;20403;-53
2023/02/27 01:30:59;;;;;;;2.60;1.57;;;;;;;;;;5096041;28;20807;-53
2023/02/27 01:33:25;;;;;;;2.73;1.70;;;;;;;;;;5095403;28;20936;-53
2023/02/27 01:35:51;;;;;;;1.67;1.57;;;;;;;;;;5096072;28;20776;-52
2023/02/27 01:38:17;;;;;;;2.47;1.70;;;;;;;;;;5096249;28;20508;-53
2023/02/27 01:40:43;;;;;;;3.67;1.60;;;;;;;;;;5095158;28;20461;-52
2023/02/27 01:43:14;;;;;;;5.70;1.80;;;;;;;;;;5094399;28;20406;-53
2023/02/27 01:45:41;;;;;;;2.33;2.10;;;;;;;;;;5078528;28;20422;-53
2023/02/27 01:48:28;;;;;;;4.83;1.73;;;;;;;;;;5088679;28;20421;-53
2023/02/27 01:50:57;;;;;;;4.80;1.80;;;;;;;;;;5093372;28;20401;-52
2023/02/27 01:53:24;;;;;;;4.10;2.00;;;;;;;;;;5092789;28;20437;-53
2023/02/27 01:55:52;;;;;;;2.23;1.90;;;;;;;;;;5086394;28;20434;-53
2023/02/27 01:58:18;;;;;;;2.63;1.90;;;;;;;;;;5090529;28;20518;-53
2023/02/27 02:00:45;;;;;;;2.47;2.03;;;;;;;;;;5084886;28;20454;-53
2023/02/27 02:03:15;;;;;;;3.97;1.83;;;;;;;;;;5085671;28;21049;-53
2023/02/27 02:05:41;;;;;;;5.23;2.33;;;;;;;;;;5087446;28;20516;-53
2023/02/27 02:08:07;;;;;;;1.77;1.53;;;;;;;;;;5085961;28;20506;-53
2023/02/27 02:10:33;;;;;;;3.80;2.10;;;;;;;;;;5085704;28;20421;-52
2023/02/27 02:12:59;;;;;;;2.70;2.00;;;;;;;;;;5081876;28;20421;-52
2023/02/27 02:15:31;;;;;;;2.97;1.93;;;;;;;;;;5086566;28;20417;-52
2023/02/27 02:18:11;;;;;;;3.57;2.40;;;;;;;;;;5089073;28;20426;-53
2023/02/27 02:21:08;;;;;;;3.83;2.27;;;;;;;;;;5087871;28;20461;-52
2023/02/27 02:23:53;;;;;;;5.63;2.37;;;;;;;;;;5076486;28;20430;-52
2023/02/27 02:26:35;;;;;;;2.60;2.13;;;;;;;;;;5077598;28;20422;-52
2023/02/27 02:29:16;;;;;;;3.63;2.03;;;;;;;;;;5087019;28;20958;-53
2023/02/27 02:32:00;;;;;;;2.87;2.30;;;;;;;;;;5084047;28;20425;-52
2023/02/27 02:34:45;;;;;;;2.37;2.07;;;;;;;;;;5081652;28;20487;-52
2023/02/27 02:37:30;;;;;;;3.33;1.97;;;;;;;;;;5087426;28;20433;-52
2023/02/27 02:39:56;;;;;;;4.93;2.40;;;;;;;;;;5079378;28;20810;-53
2023/02/27 02:42:25;;;;;;;2.53;2.03;;;;;;;;;;5090246;28;20430;-52
2023/02/27 02:45:03;;;;;;;2.10;1.90;;;;;;;;;;5086746;28;20176;-53
2023/02/27 02:47:35;;;;;;;3.93;2.27;;;;;;;;;;5088495;28;20935;-53
2023/02/27 02:50:19;;;;;;;3.00;1.90;;;;;;;;;;5081138;28;20427;-53
2023/02/27 02:52:50;;;;;;;2.83;2.00;;;;;;;;;;5087470;28;20429;-53
2023/02/27 02:55:24;;;;;;;2.47;1.90;;;;;;;;;;5084822;28;20422;-53
2023/02/27 02:58:01;;;;;;;4.97;2.53;;;;;;;;;;5081421;28;20421;-52
2023/02/27 03:00:30;;;;;;;2.23;2.03;;;;;;;;;;5082882;28;20547;-52
2023/02/27 03:03:02;;;;;;;2.77;1.87;;;;;;;;;;5083291;28;20472;-52
2023/02/27 03:05:38;;;;;;;3.03;2.40;;;;;;;;;;5082402;28;21055;-52
2023/02/27 03:08:07;;;;;;;3.13;1.87;;;;;;;;;;5086983;28;20487;-52
2023/02/27 03:10:39;;;;;;;3.27;2.67;;;;;;;;;;5089174;28;20482;-53
2023/02/27 03:13:11;;;;;;;3.23;2.00;;;;;;;;;;5087015;28;20429;-53
2023/02/27 03:16:07;;;;;;;2.10;1.83;;;;;;;;;;5084046;28;20433;-53
2023/02/27 03:18:52;;;;;;;2.30;2.10;;;;;;;;;;5065632;28;20455;-52
2023/02/27 03:21:38;;;;;;;4.33;2.23;;;;;;;;;;5081457;28;20457;-52
2023/02/27 03:24:06;;;;;;;2.73;1.90;;;;;;;;;;5088148;28;20826;-53
2023/02/27 03:26:37;;;;;;;3.13;2.50;;;;;;;;;;5085784;28;20426;-53
2023/02/27 03:29:10;;;;;;;3.37;2.20;;;;;;;;;;5083588;28;20426;-53
2023/02/27 03:31:51;;;;;;;4.97;2.10;;;;;;;;;;5089998;28;20438;-52
2023/02/27 03:34:23;;;;;;;2.47;1.83;;;;;;;;;;5078450;28;20493;-52
2023/02/27 03:36:56;;;;;;;2.27;1.53;;;;;;;;;;5084063;28;20830;-53
2023/02/27 03:39:25;;;;;;;3.93;2.00;;;;;;;;;;5080933;28;20917;-53
2023/02/27 03:42:11;;;;;;;3.93;2.53;;;;;;;;;;5090712;28;20457;-53
2023/02/27 03:44:46;;;;;;;2.77;1.93;;;;;;;;;;5028002;28;20423;-52
2023/02/27 03:47:12;;;;;;;2.50;2.30;;;;;;;;;;5087282;28;20467;-52
2023/02/27 03:49:38;;;;;;;2.60;2.30;;;;;;;;;;5089699;28;20401;-53
2023/02/27 03:52:04;;;;;;;3.57;2.70;;;;;;;;;;5090739;28;20390;-53
2023/02/27 03:54:34;;;;;;;2.80;2.07;;;;;;;;;;5089551;28;20475;-52
2023/02/27 03:57:01;;;;;;;2.57;1.90;;;;;;;;;;5088002;28;20947;-53
2023/02/27 03:59:27;;;;;;;4.63;2.50;;;;;;;;;;5079737;28;20414;-53
2023/02/27 04:01:55;;;;;;;3.63;2.10;;;;;;;;;;5085493;28;21966;-52
2023/02/27 04:04:21;;;;;;;2.70;2.23;;;;;;;;;;5088539;28;20842;-52
2023/02/27 04:10:09;;;;;;;3.07;2.20;;;;;;;;;;5080775;28;20479;-52
2023/02/27 04:12:50;;;;;;;2.50;1.80;;;;;;;;;;5081686;28;20452;-52
2023/02/27 04:15:36;;;;;;;4.00;2.50;;;;;;;;;;5084641;28;20776;-52
2023/02/27 04:18:17;;;;;;;4.40;2.70;;;;;;;;;;5039831;28;20437;-52
2023/02/27 04:20:44;;;;;;;2.20;2.00;;;;;;;;;;5087053;28;20952;-53
2023/02/27 04:23:16;;;;;;;2.77;2.00;;;;;;;;;;5079945;28;20445;-53
2023/02/27 04:26:15;;;;;;;3.53;1.80;;;;;;;;;;5081434;28;20429;-52
2023/02/27 04:29:04;;;;;;;6.60;2.80;;;;;;;;;;5042087;28;20476;-52
2023/02/27 04:31:42;;;;;;;3.47;2.67;;;;;;;;;;5070154;28;20431;-52
2023/02/27 04:34:23;;;;;;;4.13;2.30;;;;;;;;;;5084432;28;20425;-53
2023/02/27 04:36:49;;;;;;;2.70;2.17;;;;;;;;;;5083143;28;20433;-52
2023/02/27 04:39:21;;;;;;;4.23;2.80;;;;;;;;;;5087739;28;20426;-52
2023/02/27 04:42:01;;;;;;;7.20;2.90;;;;;;;;;;5086833;28;20740;-52
2023/02/27 04:44:29;;;;;;;5.40;2.23;;;;;;;;;;5079947;28;20457;-52
2023/02/27 04:46:57;;;;;;;3.80;2.40;;;;;;;;;;5072592;28;20524;-52
2023/02/27 04:49:26;;;;;;;3.70;2.47;;;;;;;;;;5087648;28;20430;-52
2023/02/27 04:51:57;;;;;;;3.60;2.93;;;;;;;;;;5085079;28;20430;-53
2023/02/27 04:54:27;;;;;;;2.70;2.40;;;;;;;;;;5079762;28;20984;-52
2023/02/27 04:56:56;;;;;;;2.53;2.20;;;;;;;;;;5078770;28;20434;-52
2023/02/27 04:59:26;;;;;;;4.73;2.70;;;;;;;;;;5088086;28;20433;-52
2023/02/27 05:02:02;;;;;;;2.50;2.30;;;;;;;;;;5088819;28;20462;-52
2023/02/27 05:04:31;;;;;;;3.33;2.80;;;;;;;;;;5080022;28;20433;-52
2023/02/27 05:07:00;;;;;;;2.87;2.33;;;;;;;;;;5083799;28;20426;-53
2023/02/27 05:09:29;;;;;;;5.50;2.67;;;;;;;;;;5086182;28;20457;-52
2023/02/27 05:12:07;;;;;;;3.87;2.50;;;;;;;;;;5084545;28;20944;-52
2023/02/27 05:14:37;;;;;;;4.03;2.47;;;;;;;;;;5086810;28;20423;-52
2023/02/27 05:17:05;;;;;;;3.80;2.53;;;;;;;;;;5089157;28;21022;-53
2023/02/27 05:19:32;;;;;;;5.27;2.80;;;;;;;;;;5074153;28;20825;-52
2023/02/27 05:22:17;;;;;;;6.87;2.50;;;;;;;;;;5083460;28;20483;-52
2023/02/27 05:24:45;;;;;;;4.23;2.77;;;;;;;;;;5083368;28;20457;-52
2023/02/27 05:27:22;;;;;;;2.97;2.63;;;;;;;;;;5078638;28;20432;-53
2023/02/27 05:29:52;;;;;;;3.93;3.07;;;;;;;;;;5083729;28;20422;-52
2023/02/27 05:32:36;;;;;;;3.50;2.13;;;;;;;;;;5079414;28;20448;-52
2023/02/27 05:35:21;;;;;;;3.23;2.80;;;;;;;;;;5073347;28;20835;-52
2023/02/27 05:37:54;;;;;;;4.10;2.53;;;;;;;;;;5092470;28;20425;-53
2023/02/27 05:40:24;;;;;;;9.23;3.30;;;;;;;;;;5079233;28;20514;-52
2023/02/27 05:42:57;;;;;;;4.10;2.60;;;;;;;;;;5062294;28;20480;-52
2023/02/27 05:45:26;;;;;;;3.67;2.53;;;;;;;;;;5086521;28;20425;-52
2023/02/27 05:47:55;;;;;;;7.60;2.77;;;;;;;;;;5089885;28;20425;-52
2023/02/27 05:50:24;;;;;;;5.77;2.70;;;;;;;;;;5092376;28;20394;-52
2023/02/27 05:52:52;;;;;;;5.17;2.70;;;;;;;;;;5092898;28;20386;-52
2023/02/27 05:55:21;;;;;;;2.83;2.43;;;;;;;;;;5085578;28;20483;-53
2023/02/27 05:57:52;;;;;;;5.63;2.63;;;;;;;;;;5085284;28;20516;-53
2023/02/27 06:00:23;;;;;;;2.63;2.43;;;;;;;;;;5087857;28;20492;-53
2023/02/27 06:02:50;;;;;;;4.63;2.77;;;;;;;;;;5090764;28;21023;-53
2023/02/27 06:05:17;;;;;;;2.60;2.40;;;;;;;;;;5077335;28;20949;-53
2023/02/27 06:07:44;;;;;;;2.90;2.47;;;;;;;;;;5086604;28;20482;-52
2023/02/27 06:10:13;;;;;;;3.07;2.30;;;;;;;;;;5085898;28;20434;-52
2023/02/27 06:12:39;;;;;;;2.83;2.50;;;;;;;;;;5087185;28;20477;-52
2023/02/27 06:15:05;;;;;;;3.13;2.67;;;;;;;;;;5089161;28;20472;-53
2023/02/27 06:17:31;;;;;;;3.07;2.43;;;;;;;;;;5086377;28;20425;-52
2023/02/27 06:19:57;;;;;;;3.53;2.63;;;;;;;;;;5087356;28;20496;-53
2023/02/27 06:22:23;;;;;;;3.70;2.50;;;;;;;;;;5085181;28;20437;-53
2023/02/27 06:24:49;;;;;;;4.50;2.90;;;;;;;;;;5083788;28;20419;-52
2023/02/27 06:27:15;;;;;;;3.47;2.70;;;;;;;;;;5083640;28;20429;-53
2023/02/27 06:29:41;;;;;;;2.97;2.50;;;;;;;;;;5089044;28;20422;-52
2023/02/27 06:32:07;;;;;;;3.40;2.60;;;;;;;;;;5091484;28;20414;-52
2023/02/27 06:34:34;;;;;;;3.33;2.50;;;;;;;;;;5087920;28;21091;-53
2023/02/27 06:37:00;;;;;;;4.30;2.30;;;;;;;;;;5084783;28;21201;-53
2023/02/27 06:39:26;;;;;;;2.30;2.10;;;;;;;;;;5080714;28;21023;-53
2023/02/27 06:41:52;;;;;;;2.50;2.30;;;;;;;;;;5089441;28;20457;-53
2023/02/27 06:44:18;;;;;;;3.27;2.60;;;;;;;;;;5078017;28;20427;-53
2023/02/27 06:46:44;;;;;;;5.07;2.80;;;;;;;;;;5079117;28;20425;-52
2023/02/27 06:49:10;;;;;;;2.43;2.00;;;;;;;;;;5078690;28;20422;-53
2023/02/27 06:51:37;;;;;;;3.87;2.40;;;;;;;;;;5079595;28;20428;-53
2023/02/27 06:54:03;;;;;;;3.03;2.73;;;;;;;;;;5086764;28;20433;-52
2023/02/27 06:56:29;;;;;;;3.33;2.43;;;;;;;;;;5084205;28;20502;-52
2023/02/27 06:58:55;;;;;;;3.77;2.43;;;;;;;;;;5090020;28;20430;-52
2023/02/27 07:01:22;;;;;;;3.33;2.43;;;;;;;;;;5089927;28;20514;-52
2023/02/27 07:03:48;;;;;;;5.80;2.73;;;;;;;;;;5075901;28;20485;-52
2023/02/27 07:06:14;;;;;;;3.13;2.37;;;;;;;;;;5082554;28;20418;-53
2023/02/27 07:08:40;;;;;;;4.67;2.43;;;;;;;;;;5077719;28;20434;-53
2023/02/27 07:11:06;;;;;;;2.67;2.30;;;;;;;;;;5083462;28;20453;-52
2023/02/27 07:13:32;;;;;;;4.10;2.37;;;;;;;;;;5082369;28;20448;-53
2023/02/27 07:15:58;;;;;;;2.60;2.30;;;;;;;;;;5082099;28;20413;-52
2023/02/27 07:18:24;;;;;;;2.53;2.20;;;;;;;;;;5078153;28;20426;-52
2023/02/27 07:20:51;;;;;;;3.50;2.50;;;;;;;;;;5079649;28;20445;-52
2023/02/27 07:23:17;;;;;;;3.77;2.87;;;;;;;;;;5080538;28;20954;-52
2023/02/27 07:25:43;;;;;;;4.47;2.30;;;;;;;;;;5084407;28;20449;-53
2023/02/27 07:28:09;;;;;;;2.50;2.03;;;;;;;;;;5085879;28;20409;-53
2023/02/27 07:30:35;;;;;;;2.40;2.20;;;;;;;;;;5077864;28;20486;-53
2023/02/27 07:33:01;;;;;;;4.40;3.03;;;;;;;;;;5086826;28;20425;-53
2023/02/27 07:35:28;;;;;;;2.57;2.20;;;;;;;;;;5089381;28;20924;-53
2023/02/27 07:37:54;;;;;;;2.27;2.07;;;;;;;;;;5091490;28;20715;-53
2023/02/27 07:40:20;;;;;;;5.17;2.60;;;;;;;;;;5090125;28;20838;-53
2023/02/27 07:42:47;;;;;;;4.33;2.47;;;;;;;;;;5088777;28;20410;-53
2023/02/27 07:45:13;;;;;;;4.10;2.43;;;;;;;;;;5083585;28;20773;-53
2023/02/27 07:47:39;;;;;;;4.37;2.33;;;;;;;;;;5090118;28;20515;-53
2023/02/27 07:50:06;;;;;;;2.93;2.63;;;;;;;;;;5088180;28;20512;-53
2023/02/27 07:52:32;;;;;;;3.30;2.50;;;;;;;;;;5083788;28;20498;-53
2023/02/27 07:54:58;;;;;;;3.27;2.70;;;;;;;;;;5076862;28;20414;-53
2023/02/27 07:57:25;;;;;;;3.47;2.47;;;;;;;;;;5091160;28;20425;-53
2023/02/27 07:59:51;;;;;;;4.13;2.17;;;;;;;;;;5084184;28;20496;-53
2023/02/27 08:02:17;;;;;;;3.80;2.70;;;;;;;;;;5075743;28;20583;-53
2023/02/27 08:04:43;;;;;;;4.53;3.30;;;;;;;;;;5075013;28;21099;-53
2023/02/27 08:07:09;;;;;;;4.17;2.33;;;;;;;;;;5086201;28;20468;-53
2023/02/27 08:09:35;;;;;;;7.03;2.40;;;;;;;;;;5087154;28;20434;-53
2023/02/27 08:12:01;;;;;;;3.67;2.57;;;;;;;;;;5085797;28;20438;-53
2023/02/27 08:14:28;;;;;;;3.50;2.53;;;;;;;;;;5084209;28;20437;-53
2023/02/27 08:16:54;;;;;;;4.83;2.93;;;;;;;;;;5077618;28;20513;-53
2023/02/27 08:19:20;;;;;;;4.27;2.80;;;;;;;;;;5086319;28;20457;-53
2023/02/27 08:21:46;;;;;;;2.93;2.17;;;;;;;;;;5086833;28;20462;-52
2023/02/27 08:24:12;;;;;;;2.57;2.37;;;;;;;;;;5090126;28;20414;-52
2023/02/27 08:26:38;;;;;;;3.67;2.40;;;;;;;;;;5076271;28;20508;-53
2023/02/27 08:29:04;;;;;;;2.73;2.30;;;;;;;;;;5083609;28;20411;-52
2023/02/27 08:31:30;;;;;;;4.80;2.57;;;;;;;;;;5084763;28;20425;-53
2023/02/27 08:33:56;;;;;;;3.70;2.80;;;;;;;;;;5074189;28;20414;-53
2023/02/27 08:36:22;;;;;;;4.07;2.77;;;;;;;;;;5085531;28;20429;-52
2023/02/27 08:38:48;;;;;;;2.50;2.30;;;;;;;;;;5090065;28;20410;-52
2023/02/27 08:41:14;;;;;;;3.00;2.33;;;;;;;;;;5082094;28;20468;-52
2023/02/27 08:43:40;;;;;;;2.73;2.47;;;;;;;;;;5086344;28;20512;-52
2023/02/27 08:46:07;;;;;;;3.73;2.57;;;;;;;;;;5086705;28;20480;-52
2023/02/27 08:48:33;;;;;;;4.23;2.90;;;;;;;;;;5086916;28;20428;-52
2023/02/27 08:50:59;;;;;;;4.33;2.63;;;;;;;;;;5084280;28;20429;-52
2023/02/27 08:53:25;;;;;;;2.93;2.63;;;;;;;;;;5091107;28;20492;-53
2023/02/27 08:55:52;;;;;;;3.10;2.80;;;;;;;;;;5086910;28;20926;-52
2023/02/27 08:58:18;;;;;;;5.07;2.70;;;;;;;;;;5074029;28;20419;-52
2023/02/27 09:00:44;;;;;;;4.03;2.77;;;;;;;;;;5087247;28;20461;-52
2023/02/27 09:03:10;;;;;;;3.90;2.70;;;;;;;;;;5092408;28;20457;-52
2023/02/27 09:05:36;;;;;;;3.87;2.33;;;;;;;;;;5090976;28;20437;-52
2023/02/27 09:08:03;;;;;;;2.90;2.33;;;;;;;;;;5086751;28;20414;-52
2023/02/27 09:10:29;;;;;;;4.27;2.83;;;;;;;;;;5093153;28;20414;-52
2023/02/27 09:12:55;;;;;;;3.37;2.40;;;;;;;;;;5088654;28;20433;-52
2023/02/27 09:15:21;;;;;;;4.13;2.27;;;;;;;;;;5093351;28;20762;-53
2023/02/27 09:17:47;;;;;;;4.80;2.10;;;;;;;;;;5073794;28;20490;-53
2023/02/27 09:20:14;;;;;;;3.30;2.50;;;;;;;;;;5091058;28;20826;-53
2023/02/27 09:22:41;;;;;;;2.23;2.00;;;;;;;;;;5089678;28;20428;-53
2023/02/27 09:25:07;;;;;;;3.23;2.40;;;;;;;;;;5084662;28;20417;-53
2023/02/27 09:27:33;;;;;;;3.90;2.10;;;;;;;;;;5089168;28;20418;-53
2023/02/27 09:29:59;;;;;;;2.50;2.30;;;;;;;;;;5088684;28;20425;-53
2023/02/27 09:32:26;;;;;;;3.23;2.57;;;;;;;;;;5079666;28;20423;-52
2023/02/27 09:34:52;;;;;;;3.97;2.60;;;;;;;;;;5083706;28;20426;-53
2023/02/27 09:37:18;;;;;;;2.90;2.60;;;;;;;;;;5093529;28;20432;-53
2023/02/27 09:39:45;;;;;;;3.37;3.00;;;;;;;;;;5091981;28;20454;-53
2023/02/27 09:42:21;;;;;;;3.97;2.20;;;;;;;;;;5076073;28;20847;-52
2023/02/27 09:44:55;;;;;;;2.93;2.47;;;;;;;;;;5082147;28;20893;-53
2023/02/27 09:47:24;;;;;;;3.23;2.93;;;;;;;;;;5092668;28;20396;-52
2023/02/27 09:49:57;;;;;;;5.63;2.83;;;;;;;;;;5085231;28;20434;-52
2023/02/27 09:52:24;;;;;;;2.67;2.47;;;;;;;;;;5093987;28;20775;-53
2023/02/27 09:54:50;;;;;;;4.20;2.70;;;;;;;;;;5087931;28;20482;-53
2023/02/27 09:57:34;;;;;;;2.50;2.27;;;;;;;;;;5085157;28;20426;-53
2023/02/27 10:00:24;;;;;;;2.50;2.10;;;;;;;;;;5082278;28;20429;-52
2023/02/27 10:02:57;;;;;;;3.53;2.43;;;;;;;;;;5085725;28;21094;-52
2023/02/27 10:05:34;;;;;;;2.80;2.47;;;;;;;;;;5087771;28;20776;-53
2023/02/27 10:08:24;;;;;;;4.13;2.63;;;;;;;;;;5086747;28;20425;-53
2023/02/27 10:11:01;;;;;;;2.67;2.07;;;;;;;;;;5078959;28;20941;-52
2023/02/27 10:13:40;;;;;;;3.80;2.10;;;;;;;;;;5084294;28;20422;-52
2023/02/27 10:16:09;;;;;;;2.53;1.90;;;;;;;;;;5077049;28;20418;-53
2023/02/27 10:18:44;;;;;;;3.60;2.43;;;;;;;;;;5074195;28;20425;-53
2023/02/27 10:21:12;;;;;;;4.70;2.10;;;;;;;;;;5087414;28;20453;-53
2023/02/27 10:23:43;;;;;;;5.87;2.30;;;;;;;;;;5083817;28;20646;-53
2023/02/27 10:26:20;;;;;;;3.00;1.63;;;;;;;;;;5091779;28;20904;-53
2023/02/27 10:28:47;;;;;;;1.83;1.70;;;;;;;;;;5082808;28;20933;-53
2023/02/27 10:31:19;;;;;;;2.40;1.80;;;;;;;;;;5087107;28;20540;-53
2023/02/27 10:33:46;;;;;;;3.07;1.63;;;;;;;;;;5078914;28;20456;-53
2023/02/27 10:36:13;;;;;;;2.00;1.70;;;;;;;;;;5079797;28;20426;-53
2023/02/27 10:38:43;;;;;;;3.03;1.53;;;;;;;;;;5071470;28;20425;-53
2023/02/27 10:41:11;;;;;;;1.67;1.47;;;;;;;;;;5087731;28;20457;-53
2023/02/27 10:43:37;;;;;;;2.30;1.53;;;;;;;;;;5084575;28;20180;-53
2023/02/27 10:46:04;;;;;;;2.00;1.70;;;;;;;;;;5082017;28;20454;-52
2023/02/27 10:48:32;;;;;;;1.80;1.50;;;;;;;;;;5082144;28;20421;-53
2023/02/27 10:51:35;;;;;;;2.97;1.57;;;;;;;;;;5089228;28;20950;-53
2023/02/27 10:54:13;;;;;;;2.47;1.73;;;;;;;;;;4984736;28;20422;-53
2023/02/27 10:56:40;;;;;;;4.03;1.60;;;;;;;;;;5076755;28;20471;-53
2023/02/27 10:59:16;;;;;;;3.47;1.80;;;;;;;;;;5089390;28;20917;-53
2023/02/27 11:01:43;;;;;;;2.57;1.27;;;;;;;;;;5083712;28;20513;-53
2023/02/27 11:04:10;;;;;;;2.30;2.03;;;;;;;;;;5066831;28;20223;-53
2023/02/27 11:06:36;;;;;;;3.47;1.67;;;;;;;;;;5068965;28;20521;-53
2023/02/27 11:09:21;;;;;;;2.80;2.13;;;;;;;;;;5069592;28;20948;-53
2023/02/27 11:11:48;;;;;;;2.03;1.60;;;;;;;;;;5066105;28;21016;-53
2023/02/27 11:14:28;;;;;;;2.17;1.70;;;;;;;;;;5059293;28;20469;-53
2023/02/27 11:16:56;;;;;;;1.50;1.40;;;;;;;;;;5068699;28;20422;-53
2023/02/27 11:19:29;;;;;;;2.67;1.50;;;;;;;;;;5064555;28;20422;-52
2023/02/27 11:22:18;;;;;;;1.47;1.37;;;;;;;;;;5061525;28;20466;-52
2023/02/27 11:24:44;;;;;;;2.00;1.60;;;;;;;;;;5052717;28;20438;-53
2023/02/27 11:27:20;;;;;;;4.57;1.43;;;;;;;;;;5068264;28;20672;-53
2023/02/27 11:29:57;;;;;;;1.50;1.40;;;;;;;;;;5065520;28;20176;-53
2023/02/27 11:32:24;;;;;;;1.90;1.60;;;;;;;;;;5064918;28;20562;-53
2023/02/27 11:34:51;;;;;;;1.77;1.40;;;;;;;;;;5064428;28;20185;-53
2023/02/27 11:37:23;;;;;;;2.27;1.60;;;;;;;;;;5059896;28;20184;-53
2023/02/27 11:39:55;;;;;;;1.67;1.57;;;;;;;;;;5068830;28;20184;-53
2023/02/27 11:42:25;;;;;;;3.07;1.57;;;;;;;;;;5060042;28;20183;-53
2023/02/27 11:45:02;;;;;;;1.50;1.27;;;;;;;;;;5054741;28;21654;-53
2023/02/27 11:47:33;;;;;;;1.73;1.33;;;;;;;;;;5060293;28;20190;-53
2023/02/27 11:50:02;;;;;;;1.90;1.60;;;;;;;;;;5062406;28;20246;-53
2023/02/27 11:52:39;;;;;;;1.60;1.37;;;;;;;;;;5064716;28;20266;-53
2023/02/27 11:55:05;;;;;;;2.10;1.63;;;;;;;;;;5059427;28;20262;-53
2023/02/27 11:57:37;;;;;;;1.40;1.30;;;;;;;;;;5055978;28;20184;-53
2023/02/27 12:00:06;;;;;;;4.23;1.90;;;;;;;;;;5062612;28;20168;-54
2023/02/27 12:02:54;;;;;;;5.73;1.90;;;;;;;;;;5061034;28;20223;-54
2023/02/27 12:05:31;;;;;;;2.77;1.80;;;;;;;;;;5085253;28;20229;-54
2023/02/27 12:08:00;;;;;;;2.67;2.03;;;;;;;;;;5080252;28;20180;-53
2023/02/27 12:10:28;;;;;;;1.80;1.50;;;;;;;;;;5079660;28;20179;-52
2023/02/27 12:13:01;;;;;;;2.17;1.83;;;;;;;;;;5077849;28;20176;-53
2023/02/27 12:15:30;;;;;;;3.70;2.60;;;;;;;;;;5082378;28;20287;-52
2023/02/27 12:18:05;;;;;;;8.13;4.27;;;;;;;;;;5081799;28;20733;-52
2023/02/27 12:20:34;;;;;;;5.43;3.10;;;;;;;;;;5081545;28;20206;-54
2023/02/27 12:23:01;;;;;;;6.77;3.47;;;;;;;;;;5082960;28;20171;-53
2023/02/27 12:25:34;;;;;;;6.07;3.57;;;;;;;;;;5078063;28;20176;-52
2023/02/27 12:28:03;;;;;;;5.67;3.17;;;;;;;;;;5079044;28;20752;-53
2023/02/27 12:30:33;;;;;;;8.97;4.20;;;;;;;;;;5086085;28;20180;-54
2023/02/27 12:33:11;;;;;;;7.30;3.90;;;;;;;;;;5084842;28;20171;-54
2023/02/27 12:35:38;;;;;;;7.10;4.17;;;;;;;;;;5079005;28;20176;-55
2023/02/27 12:38:05;;;;;;;4.27;2.60;;;;;;;;;;5085070;28;20183;-54
2023/02/27 12:40:36;;;;;;;5.03;2.67;;;;;;;;;;5084963;28;20837;-54
2023/02/27 12:43:14;;;;;;;3.47;2.20;;;;;;;;;;5083406;28;20176;-54
2023/02/27 12:45:43;;;;;;;5.73;2.10;;;;;;;;;;5076201;28;20175;-54
2023/02/27 12:48:28;;;;;;;4.17;2.27;;;;;;;;;;5078124;28;20249;-54
2023/02/27 12:50:57;;;;;;;3.53;2.53;;;;;;;;;;5085234;28;20302;-54
2023/02/27 12:53:49;;;;;;;3.57;2.13;;;;;;;;;;5082454;28;20634;-54
2023/02/27 12:56:17;;;;;;;3.40;2.03;;;;;;;;;;5079189;28;20242;-54
2023/02/27 12:58:46;;;;;;;5.30;2.20;;;;;;;;;;5085352;28;20206;-54
2023/02/27 13:01:18;;;;;;;4.50;3.10;;;;;;;;;;5082520;28;20609;-54
2023/02/27 13:03:47;;;;;;;5.13;2.87;;;;;;;;;;5079374;28;20334;-55
2023/02/27 13:06:22;;;;;;;3.93;2.27;;;;;;;;;;5082649;28;20175;-54
2023/02/27 13:08:54;;;;;;;2.50;2.20;;;;;;;;;;5081006;28;20696;-55
2023/02/27 13:11:35;;;;;;;4.20;2.10;;;;;;;;;;5082060;28;20199;-54
2023/02/27 13:14:05;;;;;;;3.20;2.87;;;;;;;;;;5082260;28;20183;-54
2023/02/27 13:16:42;;;;;;;5.40;3.00;;;;;;;;;;5083293;28;20238;-54
2023/02/27 13:19:11;;;;;;;3.13;2.43;;;;;;;;;;5081819;28;20658;-54
2023/02/27 13:21:38;;;;;;;3.30;2.70;;;;;;;;;;5086475;28;20278;-54
2023/02/27 13:24:04;;;;;;;4.03;2.87;;;;;;;;;;5083628;28;20772;-54
2023/02/27 13:26:35;;;;;;;3.93;2.80;;;;;;;;;;5082506;28;20645;-54
2023/02/27 13:29:01;;;;;;;4.23;2.47;;;;;;;;;;5084158;28;20561;-54
2023/02/27 13:31:42;;;;;;;4.70;2.80;;;;;;;;;;5076068;28;20503;-54
2023/02/27 13:34:08;;;;;;;3.10;2.30;;;;;;;;;;5080163;28;20771;-54
2023/02/27 13:36:38;;;;;;;5.43;3.03;;;;;;;;;;5083662;28;20525;-54
2023/02/27 13:39:04;;;;;;;3.57;2.63;;;;;;;;;;5085406;28;20517;-52
2023/02/27 13:41:35;;;;;;;3.40;2.30;;;;;;;;;;5088739;28;21455;-53
2023/02/27 13:44:16;;;;;;;3.67;2.13;;;;;;;;;;5076123;28;20686;-53
2023/02/27 13:46:42;;;;;;;3.50;1.97;;;;;;;;;;5083111;28;20184;-54
2023/02/27 13:49:11;;;;;;;2.73;2.03;;;;;;;;;;5088318;28;20183;-54
2023/02/27 13:51:37;;;;;;;2.43;1.60;;;;;;;;;;5084859;28;20696;-54
2023/02/27 13:54:12;;;;;;;1.90;1.70;;;;;;;;;;5089870;28;20596;-54
2023/02/27 13:56:43;;;;;;;2.30;1.80;;;;;;;;;;5085377;28;20192;-54
2023/02/27 13:59:19;;;;;;;2.97;1.70;;;;;;;;;;5085824;28;20176;-54
2023/02/27 14:01:54;;;;;;;2.10;1.77;;;;;;;;;;5083675;28;20203;-54
2023/02/27 14:04:23;;;;;;;2.00;1.90;;;;;;;;;;5086271;28;20310;-54
2023/02/27 14:06:49;;;;;;;3.17;1.80;;;;;;;;;;5085901;28;20302;-54
2023/02/27 14:09:18;;;;;;;2.43;2.10;;;;;;;;;;5088640;28;20183;-53
2023/02/27 14:11:54;;;;;;;1.90;1.70;;;;;;;;;;5088577;28;20241;-53
2023/02/27 14:14:40;;;;;;;2.43;1.70;;;;;;;;;;5081558;28;20270;-54
2023/02/27 14:17:06;;;;;;;2.30;1.50;;;;;;;;;;5087582;28;20206;-54
2023/02/27 14:19:32;;;;;;;1.93;1.70;;;;;;;;;;5086730;28;20186;-53
2023/02/27 14:21:59;;;;;;;1.90;1.70;;;;;;;;;;5089503;28;20666;-53
2023/02/27 14:24:25;;;;;;;3.00;1.87;;;;;;;;;;5087909;28;20203;-52
2023/02/27 14:26:53;;;;;;;1.93;1.70;;;;;;;;;;5089534;28;20634;-55
2023/02/27 14:29:21;;;;;;;1.87;1.50;;;;;;;;;;5085288;28;20536;-55
2023/02/27 14:31:48;;;;;;;3.67;2.20;;;;;;;;;;5090732;28;20583;-54
2023/02/27 14:34:15;;;;;;;3.60;2.03;;;;;;;;;;5094979;28;20202;-54
2023/02/27 14:36:52;;;;;;;2.73;1.70;;;;;;;;;;5089899;28;20183;-54
2023/02/27 14:39:29;;;;;;;2.13;1.80;;;;;;;;;;5086069;28;20639;-54
2023/02/27 14:42:08;;;;;;;1.53;1.40;;;;;;;;;;5088765;28;20654;-53
2023/02/27 14:44:38;;;;;;;3.83;1.80;;;;;;;;;;5094443;28;20171;-54
2023/02/27 14:47:05;;;;;;;2.53;1.60;;;;;;;;;;5083199;28;20222;-54
2023/02/27 14:49:35;;;;;;;5.73;2.23;;;;;;;;;;5079806;28;20218;-54
2023/02/27 14:52:14;;;;;;;2.13;1.60;;;;;;;;;;5080521;28;20713;-54
2023/02/27 14:54:40;;;;;;;2.20;1.80;;;;;;;;;;5076095;28;20270;-54
2023/02/27 14:57:06;;;;;;;1.70;1.60;;;;;;;;;;5084266;28;20638;-54
2023/02/27 14:59:43;;;;;;;1.90;1.80;;;;;;;;;;5085969;28;20233;-54
2023/02/27 15:02:17;;;;;;;2.27;1.70;;;;;;;;;;5084507;28;20313;-54
2023/02/27 15:04:44;;;;;;;2.03;1.50;;;;;;;;;;5070370;28;20203;-54